Port Sheldon, MI

11:36 PM EST on January 24, 2015 (GMT -0500)
Muskegon County | Change Station
CLOSE
Current Station
Airport
Location: Muskegon,
Elevation: 633 ft
Nearby Weather Stations

Elev 633 ft 43.17 °N, 86.24 °W | Updated 41 minutes ago

Overcast
Overcast
36 °F
Feels Like 36 °F
N
0
Wind Variable Wind from North

Today
High -- | Low -- °F
--% Chance of Precip.
Yesterday
High -- | Low -- °F
Precip. -- in
8:06 AM 5:46 PM
Waxing Crescent, 28% visible
Pressure 29.69 in
Visibility 5.0 miles
Clouds Overcast 1200 ft
Dew Point 33 °F
Humidity 89%
Rainfall 0.00 in
Snow Depth Not available.
UV 0 out of 12
Pollen .10 out of 12
Air Quality Not available.
Flu Activity Not available.
METAR KMKG 250355Z 00000KT 5SM BR OVC012 02/01 A2967 RMK AO2 SLP054 LAST AUGMENTED OBS OF THE DAY UNTIL 1045Z T00220006

More Conditions Fewer Conditions

Pressure 29.69 in
Visibility 5.0 miles
Clouds Overcast 1200 ft
Dew Point 33 °F
Humidity 89%
Rainfall 0.00 in
Snow Depth Not available.
UV 0 out of 12
Pollen .10 out of 12
Air Quality Not available.
Flu Activity Not available.
METAR KMKG 250355Z 00000KT 5SM BR OVC012 02/01 A2967 RMK AO2 SLP054 LAST AUGMENTED OBS OF THE DAY UNTIL 1045Z T00220006

More Conditions Fewer Conditions

10-Day Weather Forecast

Almanac

Astronomy

Jan. 24, 2015 Rise Set
Actual Time
Civil Twilight
Nautical Twilight
Astronomical Twilight
Moon
Length of Visible Light
Length of Day
Tomorrow will be .
, % of the Moon is Illuminated

Today's Extremes

State Highs State Lows

Community

WunderPhotos

Upload Photos

1,789,838 photos uploaded!

WunderBlogs® & News

Nearby

Air Quality

  Air Quality AQ Index Pollutant
Not available.

Snow Depth

Station Depth Elevation

Earthquake Activity

City Distance Mag. Time & Date
Minimum magnitude displayed is 2.5.

Coastal Water Temperatures

Place Temperature

Nearby Weather Stations